Time;durP1;ratioP1;P1;durP2;ratioP2;P2;SDS_P1;SDS_P2;PMS_P1;PMS_P2;Temp;Humidity;BMP_temperature;BMP_pressure;BME280_temperature;BME280_humidity;BME280_pressure;Samples;Min_cycle;Max_cycle;Signal;HPM_P1;HPM_P2
2022/02/18 00:02:13;;;;;;;7.47;1.85;;;;;;;6.91;66.34;99181.52;2908279;82;21079;-72
2022/02/18 00:06:15;;;;;;;3.15;1.65;;;;;;;6.97;66.39;99187.13;2908562;82;21023;-72
2022/02/18 00:10:17;;;;;;;3.72;1.67;;;;;;;6.90;65.65;99181.17;2908789;82;21019;-72
2022/02/18 00:14:18;;;;;;;5.15;1.77;;;;;;;6.85;66.29;99194.77;2906749;81;20995;-73
2022/02/18 00:18:20;;;;;;;5.45;1.57;;;;;;;6.67;65.94;99228.37;2908470;82;21027;-70
2022/02/18 00:22:23;;;;;;;3.08;1.85;;;;;;;6.76;65.90;99210.09;2914104;81;21031;-72
2022/02/18 00:26:24;;;;;;;3.70;1.40;;;;;;;6.83;66.19;99227.10;2929399;81;20988;-72
2022/02/18 00:30:26;;;;;;;3.58;2.12;;;;;;;6.78;66.37;99225.33;2934448;80;21095;-72
2022/02/18 00:34:28;;;;;;;2.42;1.55;;;;;;;6.67;66.96;99233.66;2934552;80;21063;-72
2022/02/18 00:38:30;;;;;;;4.67;1.65;;;;;;;6.47;66.91;99237.09;2922099;80;21023;-70
2022/02/18 00:42:32;;;;;;;5.67;1.35;;;;;;;6.43;67.14;99251.88;2921363;81;21078;-72
2022/02/18 00:46:33;;;;;;;9.80;2.08;;;;;;;6.49;67.16;99243.12;2918230;81;21011;-71
2022/02/18 00:50:35;;;;;;;3.35;2.02;;;;;;;6.43;66.86;99259.80;2918246;81;21062;-72
2022/02/18 00:54:37;;;;;;;5.78;2.40;;;;;;;6.43;67.95;99259.80;2918898;80;21019;-72
2022/02/18 00:58:39;;;;;;;1.85;1.32;;;;;;;6.45;68.18;99262.80;2868542;81;21013;-72
2022/02/18 01:02:40;;;;;;;5.95;2.02;;;;;;;6.35;67.88;99260.92;2868841;81;21037;-72
2022/02/18 01:06:42;;;;;;;7.75;3.92;;;;;;;6.34;67.73;99257.92;2866083;82;21074;-72
2022/02/18 01:10:45;;;;;;;3.25;1.85;;;;;;;6.28;67.96;99261.03;2934566;81;21039;-72
2022/02/18 01:14:47;;;;;;;5.53;2.50;;;;;;;6.24;67.75;99258.29;2870234;81;20974;-72
2022/02/18 01:18:49;;;;;;;7.33;1.72;;;;;;;6.27;67.21;99273.88;2925239;80;20988;-72
2022/02/18 01:22:50;;;;;;;3.80;1.80;;;;;;;6.23;67.33;99275.09;2922457;81;21051;-72
2022/02/18 01:26:52;;;;;;;2.85;1.30;;;;;;;6.23;67.44;99271.14;2918502;81;21046;-72
2022/02/18 01:30:54;;;;;;;6.42;1.92;;;;;;;6.22;67.91;99273.42;2894975;81;21036;-71
2022/02/18 01:34:58;;;;;;;5.78;1.95;;;;;;;6.20;68.15;99259.50;2912111;81;21070;-71
2022/02/18 01:38:59;;;;;;;4.20;2.10;;;;;;;6.23;68.66;99279.91;2880270;82;21063;-71
2022/02/18 01:43:01;;;;;;;9.03;3.22;;;;;;;6.26;69.30;99287.59;2912050;81;21042;-72
2022/02/18 01:47:06;;;;;;;3.98;2.05;;;;;;;6.27;69.68;99300.30;2880436;82;21063;-70
2022/02/18 01:51:08;;;;;;;5.80;2.50;;;;;;;6.22;69.75;99290.13;2911689;81;21022;-72
2022/02/18 01:55:12;;;;;;;6.17;1.77;;;;;;;6.24;69.43;99303.19;2879999;82;21088;-71
2022/02/18 01:59:14;;;;;;;2.20;1.65;;;;;;;6.20;69.01;99284.59;2911672;80;21713;-73
2022/02/18 02:03:16;;;;;;;3.40;1.77;;;;;;;6.24;68.36;99300.55;2880083;82;21555;-71
2022/02/18 02:07:18;;;;;;;7.37;2.65;;;;;;;6.26;67.07;99308.72;2911616;81;21070;-72
2022/02/18 02:11:20;;;;;;;10.00;4.00;;;;;;;6.35;67.14;99321.67;2880198;82;21008;-72
2022/02/18 02:15:26;;;;;;;15.43;3.35;;;;;;;6.33;67.21;99327.56;2911912;81;21098;-72
2022/02/18 02:19:29;;;;;;;4.33;2.52;;;;;;;6.31;66.97;99294.30;2880014;82;21638;-71
2022/02/18 02:23:33;;;;;;;3.87;2.35;;;;;;;6.28;67.37;99337.16;2911860;80;21595;-73
2022/02/18 02:27:34;;;;;;;2.83;1.85;;;;;;;6.31;67.88;99341.38;2879542;82;21036;-72
2022/02/18 02:31:36;;;;;;;2.80;1.55;;;;;;;6.24;67.90;99356.00;2913926;81;21055;-72
2022/02/18 02:35:37;;;;;;;4.10;1.62;;;;;;;6.26;68.10;99369.46;2912239;81;21027;-72
2022/02/18 02:39:39;;;;;;;5.45;2.65;;;;;;;6.24;68.69;99358.19;2871835;82;21046;-71
2022/02/18 02:43:41;;;;;;;5.75;1.80;;;;;;;6.16;68.57;99349.18;2908784;81;21042;-72
2022/02/18 02:47:47;;;;;;;19.37;2.30;;;;;;;6.13;68.58;99347.14;2908659;81;21070;-69
2022/02/18 02:51:49;;;;;;;4.05;1.52;;;;;;;6.17;69.14;99360.10;2909058;80;21045;-72
2022/02/18 02:55:51;;;;;;;4.70;2.15;;;;;;;6.11;69.10;99362.73;2856379;83;21710;-70
2022/02/18 02:59:53;;;;;;;3.12;1.95;;;;;;;6.03;69.13;99367.29;2908023;82;21030;-71
2022/02/18 03:03:54;;;;;;;2.37;1.40;;;;;;;5.99;68.54;99376.37;2856124;83;21106;-72
2022/02/18 03:07:56;;;;;;;5.80;2.35;;;;;;;6.00;68.54;99374.95;2908366;81;21023;-71
2022/02/18 03:11:58;;;;;;;3.83;2.52;;;;;;;5.97;69.10;99370.38;2856652;83;21575;-71
2022/02/18 03:16:00;;;;;;;6.62;2.60;;;;;;;5.88;69.15;99374.57;2908429;81;20999;-70
2022/02/18 03:20:01;;;;;;;4.25;2.65;;;;;;;5.89;69.35;99378.03;2856163;82;21071;-72
2022/02/18 03:24:03;;;;;;;2.47;1.82;;;;;;;5.86;69.28;99362.80;2908089;81;21046;-70
2022/02/18 03:28:05;;;;;;;3.50;1.40;;;;;;;5.85;69.30;99385.37;2855873;83;21031;-69
2022/02/18 03:32:08;;;;;;;3.98;1.75;;;;;;;5.82;69.70;99395.67;2911495;81;21011;-72
2022/02/18 03:36:10;;;;;;;8.38;2.45;;;;;;;5.81;69.68;99391.84;2914305;81;21065;-72
2022/02/18 03:40:12;;;;;;;3.95;2.58;;;;;;;5.75;69.56;99387.88;2914271;81;21086;-72
2022/02/18 03:44:14;;;;;;;6.95;3.72;;;;;;;5.79;69.41;99424.09;2914502;80;21023;-72
2022/02/18 03:48:16;;;;;;;3.42;1.60;;;;;;;5.69;69.65;99412.06;2914398;81;21023;-71
2022/02/18 03:52:18;;;;;;;6.08;2.00;;;;;;;5.62;69.37;99401.16;2914254;81;21027;-71
2022/02/18 03:56:19;;;;;;;4.53;1.55;;;;;;;5.67;68.88;99402.11;2914423;81;20998;-71
2022/02/18 04:00:21;;;;;;;5.75;2.52;;;;;;;5.65;69.20;99410.16;2914186;81;21034;-70
2022/02/18 04:04:23;;;;;;;12.23;2.42;;;;;;;5.58;68.83;99416.38;2915755;81;21054;-68
2022/02/18 04:08:25;;;;;;;6.42;1.65;;;;;;;5.58;69.26;99412.41;2915679;81;21074;-68
2022/02/18 04:12:26;;;;;;;7.78;2.25;;;;;;;5.56;69.45;99422.24;2915950;81;21085;-69
2022/02/18 04:16:28;;;;;;;2.70;1.60;;;;;;;5.50;70.41;99435.90;2915637;81;20976;-69
2022/02/18 04:20:30;;;;;;;9.63;3.27;;;;;;;5.48;70.54;99435.14;2915975;81;21029;-69
2022/02/18 04:24:32;;;;;;;4.37;2.22;;;;;;;5.36;70.25;99436.08;2915708;81;21034;-69
2022/02/18 04:28:34;;;;;;;9.13;2.50;;;;;;;5.37;70.40;99446.48;2915694;81;21567;-69
2022/02/18 04:32:35;;;;;;;2.08;1.37;;;;;;;5.35;70.60;99451.53;2911903;81;21026;-69
2022/02/18 04:36:37;;;;;;;5.40;2.22;;;;;;;5.32;70.96;99455.72;2857274;83;21612;-69
2022/02/18 04:40:39;;;;;;;5.75;1.47;;;;;;;5.27;70.56;99471.88;2909185;82;20980;-69
2022/02/18 04:44:41;;;;;;;4.53;1.30;;;;;;;5.23;71.45;99469.92;2857591;83;21079;-69
2022/02/18 04:48:42;;;;;;;6.53;2.02;;;;;;;5.13;71.43;99467.11;2909665;81;21102;-69
2022/02/18 04:52:44;;;;;;;9.20;2.62;;;;;;;5.06;71.65;99469.84;2857362;83;21027;-69
2022/02/18 04:56:46;;;;;;;8.98;2.17;;;;;;;4.99;72.04;99483.08;2909579;81;21535;-69
2022/02/18 05:00:48;;;;;;;5.80;1.57;;;;;;;4.92;72.29;99492.38;2856169;83;21079;-69
2022/02/18 05:04:50;;;;;;;9.53;2.58;;;;;;;4.86;72.50;99487.06;2909165;81;21046;-69
2022/02/18 05:08:51;;;;;;;10.85;2.27;;;;;;;4.88;72.50;99501.46;2856930;83;21094;-69
2022/02/18 05:12:53;;;;;;;4.25;2.20;;;;;;;4.85;72.72;99505.14;2909084;81;21027;-68
2022/02/18 05:16:55;;;;;;;5.53;2.05;;;;;;;4.82;73.59;99504.05;2856548;83;21341;-69
2022/02/18 05:20:57;;;;;;;4.67;1.90;;;;;;;4.85;73.48;99492.83;2909025;81;20995;-68
2022/02/18 05:24:59;;;;;;;6.00;2.37;;;;;;;4.82;73.75;99495.69;2855777;83;21007;-68
2022/02/18 05:29:01;;;;;;;5.00;2.27;;;;;;;4.82;74.04;99494.83;2907940;81;21532;-68
2022/02/18 05:33:03;;;;;;;7.90;4.37;;;;;;;4.78;74.18;99481.02;2864412;81;21067;-70
2022/02/18 05:37:05;;;;;;;4.37;1.95;;;;;;;4.77;73.96;99488.55;2922061;80;21081;-68
2022/02/18 05:41:07;;;;;;;6.62;3.12;;;;;;;4.67;74.28;99493.62;2869662;83;21019;-68
2022/02/18 05:45:10;;;;;;;7.60;2.58;;;;;;;4.61;74.58;99501.11;2922583;81;21007;-67
2022/02/18 05:49:12;;;;;;;6.35;2.15;;;;;;;4.52;74.75;99499.50;2869847;83;21090;-68
2022/02/18 05:53:13;;;;;;;3.60;2.15;;;;;;;4.51;74.54;99512.76;2922152;81;20998;-68
2022/02/18 05:57:15;;;;;;;3.50;1.90;;;;;;;4.47;74.39;99519.19;2869267;83;21070;-68
2022/02/18 06:01:20;;;;;;;7.47;3.20;;;;;;;4.50;74.57;99515.03;2922703;81;20999;-68
2022/02/18 06:05:20;;;;;;;2.95;1.67;;;;;;;4.52;74.55;99517.08;2871909;82;21058;-68
2022/02/18 06:09:23;;;;;;;9.03;2.60;;;;;;;4.61;74.20;99526.99;2930639;81;21090;-68
2022/02/18 06:13:24;;;;;;;6.45;2.12;;;;;;;4.76;74.05;99526.88;2931020;81;21608;-68
2022/02/18 06:17:26;;;;;;;9.65;2.52;;;;;;;4.83;74.57;99529.45;2938729;80;21047;-68
2022/02/18 06:21:28;;;;;;;9.95;2.95;;;;;;;4.91;75.08;99520.52;2957817;80;21043;-68
2022/02/18 06:25:30;;;;;;;6.08;2.75;;;;;;;5.03;75.87;99526.73;2872827;80;21069;-68
2022/02/18 06:29:31;;;;;;;3.75;1.75;;;;;;;5.18;76.16;99523.94;2922540;81;21045;-68
2022/02/18 06:33:34;;;;;;;7.95;2.83;;;;;;;5.29;76.54;99522.21;2869852;82;21058;-68
2022/02/18 06:37:35;;;;;;;4.10;2.40;;;;;;;5.40;76.56;99517.97;2923023;80;21055;-68
2022/02/18 06:41:37;;;;;;;7.55;2.87;;;;;;;5.44;76.79;99520.74;2869828;83;21519;-68
2022/02/18 06:45:39;;;;;;;14.55;3.40;;;;;;;5.50;77.26;99517.68;2923444;81;21085;-68
2022/02/18 06:49:44;;;;;;;6.42;3.17;;;;;;;5.58;77.47;99522.36;2870319;83;21042;-68
2022/02/18 06:53:44;;;;;;;10.88;3.98;;;;;;;5.63;77.91;99527.31;2923049;81;21003;-68
2022/02/18 06:57:47;;;;;;;11.88;3.65;;;;;;;5.66;78.04;99529.72;2923402;81;20987;-67
2022/02/18 07:01:53;;;;;;;4.35;2.45;;;;;;;5.69;78.15;99541.36;2923126;81;21387;-68
2022/02/18 07:05:52;;;;;;;6.42;1.62;;;;;;;5.68;78.43;99538.36;2875363;81;21054;-68
2022/02/18 07:09:53;;;;;;;9.65;2.02;;;;;;;5.70;78.35;99549.19;2832385;81;21030;-68
2022/02/18 07:13:55;;;;;;;6.47;2.75;;;;;;;5.72;78.29;99547.27;2873619;83;20967;-68
2022/02/18 07:17:57;;;;;;;8.93;2.70;;;;;;;5.80;78.21;99538.79;2873565;83;21131;-68
2022/02/18 07:21:59;;;;;;;11.38;3.47;;;;;;;5.86;77.67;99537.00;2873607;83;21075;-68
2022/02/18 07:26:01;;;;;;;3.65;2.42;;;;;;;5.98;77.61;99538.38;2873775;83;21016;-68
2022/02/18 07:30:05;;;;;;;5.67;2.87;;;;;;;6.10;77.01;99536.19;2873155;83;21075;-68
2022/02/18 07:34:07;;;;;;;9.65;4.00;;;;;;;6.23;76.46;99537.41;2873804;83;21050;-68
2022/02/18 07:38:09;;;;;;;7.10;3.42;;;;;;;6.38;75.92;99537.18;2873932;83;21051;-68
2022/02/18 07:42:10;;;;;;;11.08;3.92;;;;;;;6.51;75.21;99537.11;2903768;81;21047;-68
2022/02/18 07:46:12;;;;;;;4.47;2.60;;;;;;;6.69;74.86;99537.47;2917504;81;21015;-68
2022/02/18 07:50:14;;;;;;;7.60;3.15;;;;;;;6.80;73.44;99518.13;2874016;81;21054;-68
2022/02/18 07:54:15;;;;;;;7.08;2.67;;;;;;;6.93;73.22;99525.47;2874152;81;21089;-68
2022/02/18 07:58:17;;;;;;;8.48;2.90;;;;;;;7.14;73.32;99530.84;2874263;83;21329;-68
2022/02/18 08:02:19;;;;;;;6.33;2.98;;;;;;;7.29;72.84;99530.12;2874180;81;21023;-68
2022/02/18 08:06:21;;;;;;;7.12;3.20;;;;;;;7.44;71.63;99529.82;2874122;83;21563;-68
2022/02/18 08:10:23;;;;;;;6.10;3.15;;;;;;;7.52;71.95;99530.05;2873752;83;21054;-69
2022/02/18 08:14:25;;;;;;;7.30;3.83;;;;;;;7.70;71.86;99519.76;2915996;81;21002;-68
2022/02/18 08:18:26;;;;;;;10.20;3.70;;;;;;;7.79;71.03;99526.11;2924476;81;21507;-68
2022/02/18 08:22:28;;;;;;;8.95;3.98;;;;;;;7.92;70.98;99529.08;2900558;81;21119;-68
2022/02/18 08:26:32;;;;;;;25.48;3.77;;;;;;;8.09;71.92;99524.53;2874740;83;21038;-68
2022/02/18 08:30:33;;;;;;;6.80;3.67;;;;;;;8.10;69.95;99512.12;2874252;83;21042;-68
2022/02/18 08:34:35;;;;;;;7.20;3.70;;;;;;;8.25;70.73;99507.33;2863244;83;21021;-68
2022/02/18 08:38:37;;;;;;;10.40;3.45;;;;;;;8.35;70.35;99517.52;2861212;83;21030;-68
2022/02/18 08:42:39;;;;;;;8.65;3.75;;;;;;;8.50;69.28;99521.19;2810785;84;21055;-68
2022/02/18 08:46:42;;;;;;;4.22;3.52;;;;;;;8.55;69.53;99533.55;2881190;81;21035;-68
2022/02/18 08:50:44;;;;;;;4.60;2.22;;;;;;;8.69;70.45;99519.96;2910191;82;21047;-68
2022/02/18 08:54:46;;;;;;;7.53;3.65;;;;;;;8.69;68.60;99523.94;2861803;83;21032;-68
2022/02/18 08:58:47;;;;;;;5.72;3.00;;;;;;;8.84;69.42;99531.52;2870278;81;21005;-68
2022/02/18 09:02:49;;;;;;;9.28;3.95;;;;;;;9.02;69.48;99530.42;2861653;83;20974;-68
2022/02/18 09:06:51;;;;;;;9.00;3.30;;;;;;;9.10;68.95;99518.63;2810930;84;21020;-68
2022/02/18 09:10:54;;;;;;;13.43;4.37;;;;;;;9.19;68.27;99510.85;2907901;81;21066;-69
2022/02/18 09:14:56;;;;;;;5.87;3.22;;;;;;;9.29;68.89;99511.22;2856237;83;21082;-68
2022/02/18 09:18:58;;;;;;;11.73;4.20;;;;;;;9.38;69.52;99517.53;2856183;83;21098;-68
2022/02/18 09:23:00;;;;;;;9.10;4.05;;;;;;;9.49;67.87;99503.77;2877586;81;21016;-68
2022/02/18 09:27:03;;;;;;;8.45;3.12;;;;;;;9.56;66.92;99507.06;2861856;83;20976;-68
2022/02/18 09:31:04;;;;;;;5.92;3.52;;;;;;;9.67;69.28;99505.27;2883533;81;21055;-68
2022/02/18 09:35:07;;;;;;;7.85;3.27;;;;;;;9.79;68.69;99508.11;2902544;82;21040;-68
2022/02/18 09:39:09;;;;;;;9.93;4.03;;;;;;;9.71;67.69;99504.00;2914818;81;21263;-68
2022/02/18 09:43:11;;;;;;;8.45;2.83;;;;;;;9.66;67.20;99501.75;2921601;81;21058;-69
2022/02/18 09:47:13;;;;;;;7.25;2.70;;;;;;;9.70;67.07;99495.69;2905853;81;21050;-68
2022/02/18 09:51:18;;;;;;;10.00;3.42;;;;;;;9.86;69.65;99489.33;2974185;80;21019;-68
2022/02/18 09:55:20;;;;;;;5.53;3.33;;;;;;;9.97;67.18;99478.19;2922378;81;21078;-68
2022/02/18 09:59:22;;;;;;;14.00;3.70;;;;;;;10.09;67.48;99469.09;2957190;80;21023;-69
2022/02/18 10:03:24;;;;;;;11.03;3.65;;;;;;;10.14;65.74;99469.48;2880682;81;20956;-68
2022/02/18 10:07:25;;;;;;;11.78;4.17;;;;;;;10.17;66.27;99479.00;2879067;81;21037;-68
2022/02/18 10:11:33;;;;;;;5.37;3.60;;;;;;;10.18;66.35;99477.17;2863482;83;21048;-68
2022/02/18 10:15:45;;;;;;;7.30;3.67;;;;;;;10.19;65.60;99470.87;2863908;83;20965;-68
2022/02/18 10:19:52;;;;;;;;;;;;;;;10.27;65.08;99467.02;2866384;83;21478;-68
2022/02/18 10:24:12;;;;;;;8.07;3.57;;;;;;;10.33;66.04;99470.42;2863964;83;20132;-68
2022/02/18 10:28:18;;;;;;;8.55;2.60;;;;;;;10.25;64.56;99467.66;2878472;80;21639;-69
2022/02/18 10:32:20;;;;;;;9.33;2.67;;;;;;;10.33;65.02;99462.45;2905584;81;21015;-68
2022/02/18 10:36:25;;;;;;;3.87;2.72;;;;;;;10.44;64.38;99450.83;2924921;81;20988;-68
2022/02/18 10:40:27;;;;;;;5.45;2.70;;;;;;;10.56;63.77;99432.86;2890614;81;21054;-68
2022/02/18 10:44:32;;;;;;;7.80;3.10;;;;;;;10.64;61.97;99418.36;2897406;81;21050;-68
2022/02/18 10:48:48;;;;;;;6.95;2.33;;;;;;;10.71;62.19;99407.46;2878101;81;21340;-68
2022/02/18 10:53:19;;;;;;;4.23;2.37;;;;;;;10.74;61.96;99407.67;2898760;80;21078;-68
2022/02/18 10:57:25;;;;;;;3.15;1.72;;;;;;;10.84;60.98;99408.44;2890672;80;21042;-68
2022/02/18 11:01:28;;;;;;;4.30;2.45;;;;;;;10.94;60.92;99388.42;2939446;80;21046;-68
2022/02/18 11:05:30;;;;;;;8.53;3.20;;;;;;;11.03;60.46;99380.54;2911684;81;21050;-68
2022/02/18 11:09:32;;;;;;;5.55;2.52;;;;;;;11.05;60.61;99374.05;2912054;81;21074;-68
2022/02/18 11:13:36;;;;;;;19.25;3.70;;;;;;;11.14;58.95;99366.51;2911767;81;21062;-68
2022/02/18 11:17:38;;;;;;;3.90;1.90;;;;;;;11.22;60.71;99351.11;2868955;82;20999;-68
2022/02/18 11:21:39;;;;;;;5.12;2.25;;;;;;;11.27;57.85;99342.16;2879034;82;21042;-68
2022/02/18 11:25:42;;;;;;;11.45;3.55;;;;;;;11.35;57.04;99341.88;2911395;80;21035;-68
2022/02/18 11:29:44;;;;;;;9.20;2.10;;;;;;;11.30;57.74;99341.03;2856002;82;21044;-68
2022/02/18 11:34:10;;;;;;;12.65;1.95;;;;;;;11.24;56.94;99336.30;2862199;83;21037;-68
2022/02/18 11:38:42;;;;;;;6.22;2.67;;;;;;;11.17;57.76;99338.73;2900773;81;21059;-68
2022/02/18 11:43:11;;;;;;;4.20;2.37;;;;;;;11.18;59.35;99350.23;2911929;81;21039;-68
2022/02/18 11:47:26;;;;;;;2.85;2.15;;;;;;;11.25;58.16;99337.48;2862374;82;21027;-67
2022/02/18 11:51:28;;;;;;;2.62;1.82;;;;;;;11.32;59.23;99326.21;2901078;81;21032;-67
2022/02/18 11:55:35;;;;;;;7.57;3.10;;;;;;;11.46;58.65;99317.67;2854565;83;21039;-68
2022/02/18 12:00:03;;;;;;;7.12;2.90;;;;;;;11.58;58.60;99304.42;2854469;83;21023;-68
2022/02/18 12:04:16;;;;;;;4.05;2.80;;;;;;;11.74;56.73;99303.38;2884794;81;21013;-68
2022/02/18 12:08:30;;;;;;;4.55;2.62;;;;;;;11.77;55.63;99289.73;2843021;83;21558;-69
2022/02/18 12:12:39;;;;;;;5.28;2.27;;;;;;;11.82;56.49;99274.95;2850184;81;21033;-69
2022/02/18 12:16:41;;;;;;;8.05;2.10;;;;;;;11.85;56.39;99271.96;2864253;81;21349;-69
2022/02/18 12:20:43;;;;;;;8.25;2.02;;;;;;;12.00;56.47;99248.20;2860091;83;20960;-69
2022/02/18 12:24:53;;;;;;;5.85;3.05;;;;;;;12.10;56.17;99233.95;2912408;81;21027;-70
2022/02/18 12:29:21;;;;;;;2.95;1.72;;;;;;;12.11;54.97;99227.62;2833111;83;30686;-69
2022/02/18 12:33:23;;;;;;;2.05;1.72;;;;;;;11.93;53.82;99210.36;2912381;81;21011;-70
2022/02/18 12:37:25;;;;;;;4.30;2.33;;;;;;;11.93;53.82;99210.36;2862231;82;21024;-70
2022/02/18 12:41:31;;;;;;;2.67;1.70;;;;;;;11.84;55.52;99209.48;2913463;81;21024;-70
2022/02/18 12:45:48;;;;;;;4.75;2.27;;;;;;;11.65;56.16;99208.74;2913169;81;21023;-70
2022/02/18 12:49:53;;;;;;;6.37;3.50;;;;;;;11.64;56.88;99192.94;2908481;80;21055;-69
2022/02/18 12:53:56;;;;;;;4.80;3.80;;;;;;;11.55;56.07;99184.89;2860559;83;21567;-70
2022/02/18 12:57:58;;;;;;;10.90;4.85;;;;;;;11.40;59.73;99184.66;2923947;81;21014;-70
2022/02/18 13:02:00;;;;;;;6.83;3.87;;;;;;;11.26;59.26;99183.42;2864972;82;20995;-70
2022/02/18 13:06:03;;;;;;;7.70;4.90;;;;;;;11.08;60.05;99185.30;2898985;81;21058;-70
2022/02/18 13:10:09;;;;;;;4.42;3.10;;;;;;;11.00;61.23;99166.97;2937187;79;21070;-71
2022/02/18 13:14:12;;;;;;;10.13;3.30;;;;;;;10.90;61.14;99162.23;2937516;81;21043;-70
2022/02/18 13:18:14;;;;;;;5.05;3.15;;;;;;;10.80;62.07;99157.49;2937437;80;21015;-70
2022/02/18 13:22:15;;;;;;;6.83;3.60;;;;;;;10.58;63.37;99159.66;2936994;80;20956;-71
2022/02/18 13:26:18;;;;;;;4.58;1.45;;;;;;;10.42;64.57;99145.25;2936862;81;21008;-71
2022/02/18 13:30:23;;;;;;;1.22;0.93;;;;;;;10.04;66.77;99147.19;2866090;81;21046;-70
2022/02/18 13:34:26;;;;;;;1.92;1.20;;;;;;;9.71;69.22;99142.33;2890970;80;21080;-70
2022/02/18 13:38:35;;;;;;;2.15;1.77;;;;;;;9.50;70.55;99113.40;2947706;79;21037;-71
2022/02/18 13:42:54;;;;;;;14.73;6.92;;;;;;;9.45;69.62;99101.55;2893367;81;21002;-71
2022/02/18 13:47:01;;;;;;;5.80;3.02;;;;;;;9.42;70.82;99081.43;2893590;81;21023;-69
2022/02/18 13:51:04;;;;;;;5.55;3.77;;;;;;;9.27;72.20;99079.30;2957321;80;21035;-69
2022/02/18 13:55:06;;;;;;;10.03;5.35;;;;;;;9.26;73.07;99071.47;2935990;81;21575;-70
2022/02/18 13:59:24;;;;;;;11.28;7.75;;;;;;;9.09;74.03;99065.95;2936226;81;21673;-70
2022/02/18 14:03:29;;;;;;;19.23;8.40;;;;;;;8.97;75.09;99056.02;2936045;80;21037;-70
2022/02/18 14:07:32;;;;;;;15.15;9.28;;;;;;;8.93;74.14;99044.04;2935167;81;20979;-70
2022/02/18 14:11:34;;;;;;;11.68;8.35;;;;;;;8.92;73.80;99021.16;2934286;81;21014;-72
2022/02/18 14:15:35;;;;;;;14.30;7.97;;;;;;;8.82;75.09;99012.39;2943269;79;21551;-72
2022/02/18 14:19:49;;;;;;;12.82;6.50;;;;;;;8.84;74.79;99001.14;2893234;81;21106;-71
2022/02/18 14:23:53;;;;;;;15.00;7.53;;;;;;;8.87;74.21;98990.27;2916429;81;21062;-67
2022/02/18 14:27:56;;;;;;;11.43;7.37;;;;;;;8.90;75.08;98975.38;2934519;81;21002;-67
2022/02/18 14:31:59;;;;;;;23.57;13.70;;;;;;;8.98;75.40;98968.84;2934594;81;21092;-69
2022/02/18 14:36:01;;;;;;;47.23;22.32;;;;;;;8.92;75.35;98954.85;2912354;81;21109;-68
2022/02/18 14:40:16;;;;;;;15.25;12.47;;;;;;;8.81;75.87;98947.08;2901632;82;21027;-68
2022/02/18 14:44:18;;;;;;;21.87;14.30;;;;;;;8.86;75.61;98934.23;2843712;82;20980;-69
2022/02/18 14:48:20;;;;;;;25.20;15.08;;;;;;;8.70;76.56;98922.45;2910463;81;21094;-68
2022/02/18 14:52:24;;;;;;;25.37;14.43;;;;;;;8.68;76.58;98907.19;2885169;81;21002;-69
2022/02/18 14:56:25;;;;;;;19.20;13.62;;;;;;;8.62;76.42;98885.22;2905106;81;21051;-68
2022/02/18 15:00:32;;;;;;;33.90;19.20;;;;;;;8.58;76.59;98870.60;2861060;83;21028;-68
2022/02/18 15:04:34;;;;;;;26.25;13.58;;;;;;;8.65;76.83;98858.45;2861187;82;20977;-68
2022/02/18 15:08:36;;;;;;;24.90;12.73;;;;;;;8.70;75.64;98851.34;2911212;81;21051;-68
2022/02/18 15:12:39;;;;;;;22.22;9.45;;;;;;;8.83;74.99;98844.35;2861299;82;21066;-69
2022/02/18 15:16:42;;;;;;;20.20;9.40;;;;;;;8.96;74.45;98821.47;2911136;81;21143;-68
2022/02/18 15:20:44;;;;;;;16.50;9.58;;;;;;;9.04;74.51;98803.44;2861312;82;21015;-68
2022/02/18 15:24:46;;;;;;;21.02;11.97;;;;;;;9.11;74.62;98792.58;2910963;81;21059;-68
2022/02/18 15:28:48;;;;;;;15.30;8.03;;;;;;;9.11;75.09;98763.40;2860905;83;21114;-68
2022/02/18 15:37:06;;;;;;;24.20;11.07;;;;;;;9.21;76.99;98739.43;2908255;81;21075;-68
2022/02/18 15:45:23;;;;;;;27.95;10.53;;;;;;;9.03;78.68;98716.42;2909010;82;21028;-68
2022/02/18 15:49:25;;;;;;;19.85;10.13;;;;;;;9.10;79.37;98708.69;2959332;80;21094;-68
2022/02/18 15:53:27;;;;;;;16.17;7.53;;;;;;;9.03;80.09;98696.53;2908922;82;21404;-68
2022/02/18 15:57:28;;;;;;;15.95;10.35;;;;;;;8.97;80.83;98683.89;2908918;82;21054;-69
2022/02/18 16:01:30;;;;;;;61.60;30.80;;;;;;;8.96;81.94;98671.62;2959055;80;21050;-68
2022/02/18 16:05:33;;;;;;;23.22;11.80;;;;;;;8.96;82.43;98660.51;2859602;83;21043;-68
2022/02/18 16:09:36;;;;;;;15.75;9.25;;;;;;;8.82;83.43;98646.00;2860381;83;21047;-68
2022/02/18 16:13:38;;;;;;;11.75;7.58;;;;;;;8.75;84.12;98642.80;2860781;83;21650;-69
2022/02/18 16:17:45;;;;;;;13.75;7.03;;;;;;;8.76;84.72;98635.18;2860692;83;21102;-68
2022/02/18 16:21:47;;;;;;;7.80;5.25;;;;;;;8.67;86.32;98627.17;2860605;83;21022;-68
2022/02/18 16:25:49;;;;;;;7.12;4.72;;;;;;;8.63;86.14;98608.57;2810798;84;21079;-68
2022/02/18 16:29:50;;;;;;;14.15;7.72;;;;;;;8.57;86.29;98613.17;2861312;83;21113;-68
2022/02/18 16:33:52;;;;;;;11.68;7.30;;;;;;;8.54;86.27;98608.19;2812411;84;21055;-69
2022/02/18 16:37:54;;;;;;;7.40;3.47;;;;;;;8.56;86.86;98616.33;2874542;83;21101;-69
2022/02/18 16:41:56;;;;;;;7.70;3.35;;;;;;;8.54;85.48;98612.16;2823729;84;21082;-68
2022/02/18 16:45:58;;;;;;;10.23;5.92;;;;;;;8.58;85.26;98613.51;2874962;83;21039;-68
2022/02/18 16:49:59;;;;;;;15.58;7.03;;;;;;;8.51;85.52;98597.89;2823883;84;21015;-69
2022/02/18 16:54:03;;;;;;;16.48;8.58;;;;;;;8.45;84.97;98580.75;2874851;83;21038;-69
2022/02/18 16:58:05;;;;;;;13.53;6.65;;;;;;;8.43;84.88;98570.30;2823695;84;21074;-68
2022/02/18 17:02:07;;;;;;;10.08;6.20;;;;;;;8.35;85.34;98566.27;2874872;83;21093;-68
2022/02/18 17:06:08;;;;;;;10.43;5.45;;;;;;;8.41;85.18;98551.59;2823947;84;21035;-69
2022/02/18 17:10:18;;;;;;;6.55;3.90;;;;;;;8.49;85.03;98537.56;2874722;83;21070;-69
2022/02/18 17:14:17;;;;;;;6.90;3.85;;;;;;;8.57;84.94;98515.11;2874654;82;20999;-69
2022/02/18 17:18:18;;;;;;;11.03;5.55;;;;;;;8.60;84.68;98500.72;2874921;83;21010;-68
2022/02/18 17:22:20;;;;;;;8.78;4.90;;;;;;;8.70;84.81;98481.06;2823507;84;21508;-69
2022/02/18 17:26:22;;;;;;;13.35;5.97;;;;;;;8.73;85.09;98476.44;2874988;83;20975;-69
2022/02/18 17:30:24;;;;;;;11.22;4.60;;;;;;;8.81;85.31;98464.05;2823867;84;21067;-69
2022/02/18 17:34:26;;;;;;;4.80;4.10;;;;;;;8.89;85.23;98435.41;2872212;83;21022;-69
2022/02/18 17:38:27;;;;;;;15.23;6.47;;;;;;;8.92;85.02;98400.62;2859089;83;21030;-70
2022/02/18 17:42:29;;;;;;;10.03;5.35;;;;;;;9.00;85.04;98393.99;2880828;82;21030;-70
2022/02/18 17:46:31;;;;;;;16.02;6.28;;;;;;;9.04;84.81;98369.31;2858903;83;21085;-70
2022/02/18 17:50:33;;;;;;;16.77;6.00;;;;;;;9.14;84.39;98365.19;2858795;83;21440;-70
2022/02/18 17:54:35;;;;;;;7.97;5.08;;;;;;;9.22;83.72;98353.23;2858861;83;20986;-69
2022/02/18 17:58:36;;;;;;;6.87;4.35;;;;;;;9.32;83.44;98321.24;2859300;83;21053;-65
2022/02/18 18:02:38;;;;;;;9.08;4.00;;;;;;;9.39;83.09;98303.68;2859428;82;21050;-66
2022/02/18 18:06:43;;;;;;;9.60;4.97;;;;;;;9.49;83.26;98298.68;2858029;83;21017;-70
2022/02/18 18:10:47;;;;;;;13.03;5.15;;;;;;;9.49;83.18;98308.81;2901884;80;20996;-68
2022/02/18 18:14:50;;;;;;;14.65;5.80;;;;;;;9.51;83.38;98289.56;2964557;80;21621;-68
2022/02/18 18:18:58;;;;;;;13.55;6.53;;;;;;;9.60;83.28;98290.87;2964465;80;21028;-69
2022/02/18 18:22:55;;;;;;;11.10;6.83;;;;;;;9.61;83.48;98282.75;2964393;80;21059;-67
2022/02/18 18:26:57;;;;;;;13.28;5.05;;;;;;;9.68;83.09;98286.89;2964120;80;21016;-69
2022/02/18 18:30:58;;;;;;;11.97;5.03;;;;;;;9.68;83.11;98274.94;2907272;80;20991;-69
2022/02/18 18:35:00;;;;;;;11.65;6.25;;;;;;;9.75;83.12;98263.96;2876352;82;21050;-69
2022/02/18 18:39:02;;;;;;;10.82;5.87;;;;;;;9.76;83.00;98258.98;2810020;84;21070;-69
2022/02/18 18:43:04;;;;;;;17.92;7.20;;;;;;;9.79;82.46;98228.09;2859901;83;21030;-68
2022/02/18 18:47:06;;;;;;;11.22;8.40;;;;;;;9.85;82.45;98210.17;2880167;82;21039;-69
2022/02/18 18:51:07;;;;;;;10.88;6.45;;;;;;;9.91;82.25;98191.88;2899593;81;21642;-69
2022/02/18 18:55:10;;;;;;;9.08;5.75;;;;;;;10.01;81.70;98199.12;2860747;83;21061;-68
2022/02/18 18:59:12;;;;;;;10.80;6.12;;;;;;;10.11;81.28;98190.45;2860257;83;21034;-69
2022/02/18 19:03:15;;;;;;;20.40;6.15;;;;;;;10.17;81.04;98174.32;2867244;82;21035;-69
2022/02/18 19:07:17;;;;;;;18.15;7.62;;;;;;;10.19;80.70;98168.81;2860777;83;21003;-69
2022/02/18 19:11:19;;;;;;;12.95;5.62;;;;;;;10.25;80.63;98147.69;2860619;83;21066;-69
2022/02/18 19:15:21;;;;;;;6.75;4.90;;;;;;;10.38;80.11;98139.64;2860686;83;21033;-69
2022/02/18 19:19:25;;;;;;;11.28;5.83;;;;;;;10.39;80.13;98126.67;2860707;83;21102;-69